sensor_id;sensor_type;location;lat;lon;timestamp;pressure;altitude;pressure_sealevel;temperature;humidity
7309;BME280;3695;53.330;9.876;2022-12-18T00:01:52;105011.16;;;-4.39;100.00
7309;BME280;3695;53.330;9.876;2022-12-18T00:04:22;104997.09;;;-4.45;100.00
7309;BME280;3695;53.330;9.876;2022-12-18T00:06:49;104995.31;;;-4.43;100.00
7309;BME280;3695;53.330;9.876;2022-12-18T00:09:16;104988.22;;;-4.40;100.00
7309;BME280;3695;53.330;9.876;2022-12-18T00:11:42;104965.47;;;-4.57;100.00
7309;BME280;3695;53.330;9.876;2022-12-18T00:14:10;104977.75;;;-4.50;100.00
7309;BME280;3695;53.330;9.876;2022-12-18T00:16:38;104970.69;;;-4.51;100.00
7309;BME280;3695;53.330;9.876;2022-12-18T00:19:05;104967.16;;;-4.50;100.00
7309;BME280;3695;53.330;9.876;2022-12-18T00:21:33;104968.75;;;-4.36;100.00
7309;BME280;3695;53.330;9.876;2022-12-18T00:24:00;104957.34;;;-4.41;100.00
7309;BME280;3695;53.330;9.876;2022-12-18T00:26:29;104921.31;;;-4.55;100.00
7309;BME280;3695;53.330;9.876;2022-12-18T00:28:58;104918.81;;;-4.67;100.00
7309;BME280;3695;53.330;9.876;2022-12-18T00:31:25;104932.75;;;-4.51;100.00
7309;BME280;3695;53.330;9.876;2022-12-18T00:33:53;104938.72;;;-4.35;100.00
7309;BME280;3695;53.330;9.876;2022-12-18T00:36:22;104896.66;;;-4.58;100.00
7309;BME280;3695;53.330;9.876;2022-12-18T00:38:50;104900.06;;;-4.49;100.00
7309;BME280;3695;53.330;9.876;2022-12-18T00:41:17;104876.34;;;-4.58;100.00
7309;BME280;3695;53.330;9.876;2022-12-18T00:44:05;104877.13;;;-4.50;100.00
7309;BME280;3695;53.330;9.876;2022-12-18T00:46:31;104861.25;;;-4.51;100.00
7309;BME280;3695;53.330;9.876;2022-12-18T00:48:58;104842.81;;;-4.57;100.00
7309;BME280;3695;53.330;9.876;2022-12-18T00:51:25;104842.81;;;-4.57;100.00
7309;BME280;3695;53.330;9.876;2022-12-18T00:53:53;104834.88;;;-4.59;100.00
7309;BME280;3695;53.330;9.876;2022-12-18T00:56:19;104839.34;;;-4.62;100.00
7309;BME280;3695;53.330;9.876;2022-12-18T00:58:46;104869.78;;;-4.29;100.00
7309;BME280;3695;53.330;9.876;2022-12-18T01:01:12;104819.75;;;-4.51;100.00
7309;BME280;3695;53.330;9.876;2022-12-18T01:03:39;104810.88;;;-4.47;100.00
7309;BME280;3695;53.330;9.876;2022-12-18T01:06:06;104798.63;;;-4.54;100.00
7309;BME280;3695;53.330;9.876;2022-12-18T01:08:33;104787.13;;;-4.53;100.00
7309;BME280;3695;53.330;9.876;2022-12-18T01:11:06;104767.09;;;-4.70;100.00
7309;BME280;3695;53.330;9.876;2022-12-18T01:13:32;104768.75;;;-4.62;100.00
7309;BME280;3695;53.330;9.876;2022-12-18T01:15:59;104757.34;;;-4.67;100.00
7309;BME280;3695;53.330;9.876;2022-12-18T01:18:25;104746.72;;;-4.64;100.00
7309;BME280;3695;53.330;9.876;2022-12-18T01:20:52;104715.25;;;-4.85;100.00
7309;BME280;3695;53.330;9.876;2022-12-18T01:23:18;104732.69;;;-4.69;100.00
7309;BME280;3695;53.330;9.876;2022-12-18T01:25:45;104715.25;;;-4.85;100.00
7309;BME280;3695;53.330;9.876;2022-12-18T01:28:13;104724.81;;;-4.77;100.00
7309;BME280;3695;53.330;9.876;2022-12-18T01:30:40;104708.09;;;-4.80;100.00
7309;BME280;3695;53.330;9.876;2022-12-18T01:33:06;104702.84;;;-4.83;100.00
7309;BME280;3695;53.330;9.876;2022-12-18T01:35:33;104720.28;;;-4.67;100.00
7309;BME280;3695;53.330;9.876;2022-12-18T01:37:59;104679.09;;;-4.86;100.00
7309;BME280;3695;53.330;9.876;2022-12-18T01:40:25;104669.44;;;-4.90;100.00
7309;BME280;3695;53.330;9.876;2022-12-18T01:42:53;104672.19;;;-4.96;100.00
7309;BME280;3695;53.330;9.876;2022-12-18T01:45:26;104683.44;;;-4.82;100.00
7309;BME280;3695;53.330;9.876;2022-12-18T01:47:55;104679.13;;;-4.88;100.00
7309;BME280;3695;53.330;9.876;2022-12-18T01:50:25;104702.72;;;-4.71;100.00
7309;BME280;3695;53.330;9.876;2022-12-18T01:52:55;104694.78;;;-4.72;100.00
7309;BME280;3695;53.330;9.876;2022-12-18T01:55:25;104684.31;;;-4.82;100.00
7309;BME280;3695;53.330;9.876;2022-12-18T01:57:54;104670.44;;;-4.97;100.00
7309;BME280;3695;53.330;9.876;2022-12-18T02:00:23;104677.44;;;-4.93;100.00
7309;BME280;3695;53.330;9.876;2022-12-18T02:02:52;104665.97;;;-4.94;100.00
7309;BME280;3695;53.330;9.876;2022-12-18T02:05:24;104668.69;;;-4.98;100.00
7309;BME280;3695;53.330;9.876;2022-12-18T02:07:59;104681.88;;;-4.95;100.00
7309;BME280;3695;53.330;9.876;2022-12-18T02:10:31;104676.50;;;-4.89;100.00
7309;BME280;3695;53.330;9.876;2022-12-18T02:13:07;104665.09;;;-4.94;100.00
7309;BME280;3695;53.330;9.876;2022-12-18T02:15:44;104669.44;;;-4.90;100.00
7309;BME280;3695;53.330;9.876;2022-12-18T02:18:20;104658.97;;;-4.96;100.00
7309;BME280;3695;53.330;9.876;2022-12-18T02:20:51;104656.34;;;-4.98;100.00
7309;BME280;3695;53.330;9.876;2022-12-18T02:23:36;104644.84;;;-4.95;100.00
7309;BME280;3695;53.330;9.876;2022-12-18T02:26:14;104646.69;;;-5.00;100.00
7309;BME280;3695;53.330;9.876;2022-12-18T02:28:45;104637.00;;;-5.01;100.00
7309;BME280;3695;53.330;9.876;2022-12-18T02:31:16;104643.19;;;-5.02;100.00
7309;BME280;3695;53.330;9.876;2022-12-18T02:33:44;104651.88;;;-4.94;100.00
7309;BME280;3695;53.330;9.876;2022-12-18T02:36:12;104631.00;;;-5.13;100.00
7309;BME280;3695;53.330;9.876;2022-12-18T02:38:41;104649.47;;;-5.11;100.00
7309;BME280;3695;53.330;9.876;2022-12-18T02:41:10;104660.66;;;-4.92;100.00
7309;BME280;3695;53.330;9.876;2022-12-18T02:43:37;104644.13;;;-5.07;100.00
7309;BME280;3695;53.330;9.876;2022-12-18T02:46:24;104646.59;;;-4.94;100.00
7309;BME280;3695;53.330;9.876;2022-12-18T02:48:55;104621.16;;;-5.04;100.00
7309;BME280;3695;53.330;9.876;2022-12-18T02:51:27;104625.56;;;-5.03;100.00
7309;BME280;3695;53.330;9.876;2022-12-18T02:53:59;104610.75;;;-5.15;100.00
7309;BME280;3695;53.330;9.876;2022-12-18T02:56:32;104618.56;;;-5.08;100.00
7309;BME280;3695;53.330;9.876;2022-12-18T02:59:04;104620.28;;;-5.03;100.00
7309;BME280;3695;53.330;9.876;2022-12-18T03:01:38;104613.31;;;-5.11;100.00
7309;BME280;3695;53.330;9.876;2022-12-18T03:04:11;104602.00;;;-5.22;100.00
7309;BME280;3695;53.330;9.876;2022-12-18T03:06:44;104609.13;;;-5.25;100.00
7309;BME280;3695;53.330;9.876;2022-12-18T03:09:15;104618.66;;;-5.14;100.00
7309;BME280;3695;53.330;9.876;2022-12-18T03:11:48;104616.97;;;-5.21;100.00
7309;BME280;3695;53.330;9.876;2022-12-18T03:14:34;104622.22;;;-5.15;100.00
7309;BME280;3695;53.330;9.876;2022-12-18T03:17:08;104615.22;;;-5.19;100.00
7309;BME280;3695;53.330;9.876;2022-12-18T03:19:37;104599.50;;;-5.31;100.00
7309;BME280;3695;53.330;9.876;2022-12-18T03:22:07;104607.38;;;-5.28;100.00
7309;BME280;3695;53.330;9.876;2022-12-18T03:24:34;104613.47;;;-5.23;100.00
7309;BME280;3695;53.330;9.876;2022-12-18T03:27:07;104601.50;;;-5.48;100.00
7309;BME280;3695;53.330;9.876;2022-12-18T03:29:38;104601.47;;;-5.45;100.00
7309;BME280;3695;53.330;9.876;2022-12-18T03:32:09;104610.47;;;-5.58;100.00
7309;BME280;3695;53.330;9.876;2022-12-18T03:34:40;104602.75;;;-5.77;100.00
7309;BME280;3695;53.330;9.876;2022-12-18T03:37:07;104628.19;;;-5.66;100.00
7309;BME280;3695;53.330;9.876;2022-12-18T03:39:36;104623.06;;;-5.82;100.00
7309;BME280;3695;53.330;9.876;2022-12-18T03:42:07;104635.31;;;-5.75;100.00
7309;BME280;3695;53.330;9.876;2022-12-18T03:44:40;104621.56;;;-6.01;100.00
7309;BME280;3695;53.330;9.876;2022-12-18T03:47:14;104640.06;;;-6.01;100.00
7309;BME280;3695;53.330;9.876;2022-12-18T03:49:46;104654.13;;;-5.99;100.00
7309;BME280;3695;53.330;9.876;2022-12-18T03:52:18;104597.41;;;-6.49;100.00
7309;BME280;3695;53.330;9.876;2022-12-18T03:54:47;104638.56;;;-6.28;100.00
7309;BME280;3695;53.330;9.876;2022-12-18T03:57:17;104664.03;;;-6.22;100.00
7309;BME280;3695;53.330;9.876;2022-12-18T03:59:46;104667.56;;;-6.26;100.00
7309;BME280;3695;53.330;9.876;2022-12-18T04:02:15;104665.97;;;-6.43;100.00
7309;BME280;3695;53.330;9.876;2022-12-18T04:04:43;104661.69;;;-6.57;100.00
7309;BME280;3695;53.330;9.876;2022-12-18T04:07:11;104691.66;;;-6.66;100.00
7309;BME280;3695;53.330;9.876;2022-12-18T04:09:41;104705.75;;;-6.69;100.00
7309;BME280;3695;53.330;9.876;2022-12-18T04:12:08;104719.78;;;-6.63;100.00
7309;BME280;3695;53.330;9.876;2022-12-18T04:14:36;104748.78;;;-6.56;100.00
7309;BME280;3695;53.330;9.876;2022-12-18T04:17:03;104747.13;;;-6.75;100.00
7309;BME280;3695;53.330;9.876;2022-12-18T04:19:29;104769.06;;;-6.72;100.00
7309;BME280;3695;53.330;9.876;2022-12-18T04:21:56;104784.91;;;-6.70;100.00
7309;BME280;3695;53.330;9.876;2022-12-18T04:24:22;104777.00;;;-6.73;100.00
7309;BME280;3695;53.330;9.876;2022-12-18T04:26:49;104783.19;;;-6.80;100.00
7309;BME280;3695;53.330;9.876;2022-12-18T04:29:15;104784.97;;;-6.85;100.00
7309;BME280;3695;53.330;9.876;2022-12-18T04:31:43;104792.88;;;-6.79;100.00
7309;BME280;3695;53.330;9.876;2022-12-18T04:34:10;104792.84;;;-6.78;100.00
7309;BME280;3695;53.330;9.876;2022-12-18T04:36:36;104788.53;;;-6.92;100.00
7309;BME280;3695;53.330;9.876;2022-12-18T04:39:03;104786.81;;;-7.00;100.00
7309;BME280;3695;53.330;9.876;2022-12-18T04:41:29;104797.38;;;-7.04;100.00
7309;BME280;3695;53.330;9.876;2022-12-18T04:43:56;104809.72;;;-7.09;100.00
7309;BME280;3695;53.330;9.876;2022-12-18T04:46:22;104842.22;;;-7.09;100.00
7309;BME280;3695;53.330;9.876;2022-12-18T04:48:50;104884.38;;;-6.96;100.00
7309;BME280;3695;53.330;9.876;2022-12-18T04:51:17;104889.66;;;-6.96;100.00
7309;BME280;3695;53.330;9.876;2022-12-18T04:53:43;104880.03;;;-7.08;100.00
7309;BME280;3695;53.330;9.876;2022-12-18T04:56:11;104873.84;;;-7.15;100.00
7309;BME280;3695;53.330;9.876;2022-12-18T04:58:40;104902.84;;;-7.01;100.00
7309;BME280;3695;53.330;9.876;2022-12-18T05:01:07;104897.56;;;-7.12;100.00
7309;BME280;3695;53.330;9.876;2022-12-18T05:03:34;104926.59;;;-7.00;100.00
7309;BME280;3695;53.330;9.876;2022-12-18T05:06:03;104941.50;;;-6.94;100.00
7309;BME280;3695;53.330;9.876;2022-12-18T05:08:29;104910.75;;;-7.15;100.00
7309;BME280;3695;53.330;9.876;2022-12-18T05:10:59;104940.66;;;-7.04;100.00
7309;BME280;3695;53.330;9.876;2022-12-18T05:13:26;104937.13;;;-7.18;100.00
7309;BME280;3695;53.330;9.876;2022-12-18T05:15:53;104945.94;;;-7.19;100.00
7309;BME280;3695;53.330;9.876;2022-12-18T05:18:20;104951.19;;;-7.22;100.00
7309;BME280;3695;53.330;9.876;2022-12-18T05:20:46;104965.25;;;-7.23;100.00
7309;BME280;3695;53.330;9.876;2022-12-18T05:23:14;104975.81;;;-7.17;100.00
7309;BME280;3695;53.330;9.876;2022-12-18T05:25:41;104965.28;;;-7.35;100.00
7309;BME280;3695;53.330;9.876;2022-12-18T05:28:07;105002.16;;;-7.20;100.00
7309;BME280;3695;53.330;9.876;2022-12-18T05:30:34;105015.34;;;-7.12;100.00
7309;BME280;3695;53.330;9.876;2022-12-18T05:33:00;104995.13;;;-7.24;100.00
7309;BME280;3695;53.330;9.876;2022-12-18T05:35:27;105007.44;;;-7.24;100.00
7309;BME280;3695;53.330;9.876;2022-12-18T05:37:53;105014.47;;;-7.37;100.00
7309;BME280;3695;53.330;9.876;2022-12-18T05:40:21;105061.94;;;-7.19;100.00
7309;BME280;3695;53.330;9.876;2022-12-18T05:42:48;105042.59;;;-7.33;100.00
7309;BME280;3695;53.330;9.876;2022-12-18T05:45:14;105075.09;;;-7.30;100.00
7309;BME280;3695;53.330;9.876;2022-12-18T05:47:40;105090.03;;;-7.24;100.00
7309;BME280;3695;53.330;9.876;2022-12-18T05:50:07;105107.63;;;-7.23;100.00
7309;BME280;3695;53.330;9.876;2022-12-18T05:52:34;105095.31;;;-7.36;100.00
7309;BME280;3695;53.330;9.876;2022-12-18T05:55:00;105112.88;;;-7.34;100.00
7309;BME280;3695;53.330;9.876;2022-12-18T05:57:28;105123.41;;;-7.35;100.00
7309;BME280;3695;53.330;9.876;2022-12-18T05:59:55;105137.47;;;-7.36;100.00
7309;BME280;3695;53.330;9.876;2022-12-18T06:02:21;105152.41;;;-7.35;100.00
7309;BME280;3695;53.330;9.876;2022-12-18T06:04:48;105172.66;;;-7.25;100.00
7309;BME280;3695;53.330;9.876;2022-12-18T06:07:14;105148.91;;;-7.30;100.00
7309;BME280;3695;53.330;9.876;2022-12-18T06:09:41;105137.47;;;-7.33;100.00
7309;BME280;3695;53.330;9.876;2022-12-18T06:12:08;105123.41;;;-7.38;100.00
7309;BME280;3695;53.330;9.876;2022-12-18T06:14:35;105125.16;;;-7.43;100.00
7309;BME280;3695;53.330;9.876;2022-12-18T06:17:02;105142.75;;;-7.33;100.00
7309;BME280;3695;53.330;9.876;2022-12-18T06:19:28;105148.91;;;-7.28;100.00
7309;BME280;3695;53.330;9.876;2022-12-18T06:21:55;105154.19;;;-7.23;100.00
7309;BME280;3695;53.330;9.876;2022-12-18T06:24:24;105155.03;;;-7.35;100.00
7309;BME280;3695;53.330;9.876;2022-12-18T06:26:50;105159.47;;;-7.28;100.00
7309;BME280;3695;53.330;9.876;2022-12-18T06:29:16;105152.41;;;-7.35;100.00
7309;BME280;3695;53.330;9.876;2022-12-18T06:31:44;105171.75;;;-7.27;100.00
7309;BME280;3695;53.330;9.876;2022-12-18T06:34:11;105182.31;;;-7.21;100.00
7309;BME280;3695;53.330;9.876;2022-12-18T06:36:37;105177.91;;;-7.25;100.00
7309;BME280;3695;53.330;9.876;2022-12-18T06:39:04;105184.94;;;-7.24;100.00
7309;BME280;3695;53.330;9.876;2022-12-18T06:41:30;105207.88;;;-7.06;100.00
7309;BME280;3695;53.330;9.876;2022-12-18T06:43:57;105177.06;;;-7.15;100.00
7309;BME280;3695;53.330;9.876;2022-12-18T06:46:23;105174.41;;;-7.19;100.00
7309;BME280;3695;53.330;9.876;2022-12-18T06:48:51;105171.78;;;-7.12;100.00
7309;BME280;3695;53.330;9.876;2022-12-18T06:51:19;105153.31;;;-7.21;100.00
7309;BME280;3695;53.330;9.876;2022-12-18T06:53:46;105133.09;;;-7.22;100.00
7309;BME280;3695;53.330;9.876;2022-12-18T06:56:13;105135.75;;;-7.16;100.00
7309;BME280;3695;53.330;9.876;2022-12-18T06:58:40;105126.94;;;-7.24;100.00
7309;BME280;3695;53.330;9.876;2022-12-18T07:01:08;105122.56;;;-7.26;100.00
7309;BME280;3695;53.330;9.876;2022-12-18T07:03:36;105126.06;;;-7.24;100.00
7309;BME280;3695;53.330;9.876;2022-12-18T07:06:04;105153.38;;;-7.03;100.00
7309;BME280;3695;53.330;9.876;2022-12-18T07:08:31;105125.19;;;-7.22;100.00
7309;BME280;3695;53.330;9.876;2022-12-18T07:10:58;105123.44;;;-7.17;100.00
7309;BME280;3695;53.330;9.876;2022-12-18T07:13:24;105111.13;;;-7.27;100.00
7309;BME280;3695;53.330;9.876;2022-12-18T07:15:51;105123.44;;;-7.14;100.00
7309;BME280;3695;53.330;9.876;2022-12-18T07:18:18;105104.97;;;-7.27;100.00
7309;BME280;3695;53.330;9.876;2022-12-18T07:20:44;105095.28;;;-7.39;100.00
7309;BME280;3695;53.330;9.876;2022-12-18T07:23:12;105107.59;;;-7.38;100.00
7309;BME280;3695;53.330;9.876;2022-12-18T07:25:39;105134.00;;;-7.17;100.00
7309;BME280;3695;53.330;9.876;2022-12-18T07:28:05;105115.53;;;-7.24;100.00
7309;BME280;3695;53.330;9.876;2022-12-18T07:30:32;105119.91;;;-7.25;100.00
7309;BME280;3695;53.330;9.876;2022-12-18T07:32:59;105128.72;;;-7.17;100.00
7309;BME280;3695;53.330;9.876;2022-12-18T07:35:25;105115.53;;;-7.23;100.00
7309;BME280;3695;53.330;9.876;2022-12-18T07:37:52;105112.88;;;-7.26;100.00
7309;BME280;3695;53.330;9.876;2022-12-18T07:40:19;105132.25;;;-7.15;100.00
7309;BME280;3695;53.330;9.876;2022-12-18T07:42:46;105152.50;;;-6.99;100.00
7309;BME280;3695;53.330;9.876;2022-12-18T07:45:12;105142.84;;;-7.06;100.00
7309;BME280;3695;53.330;9.876;2022-12-18T07:47:39;105144.59;;;-7.02;100.00
7309;BME280;3695;53.330;9.876;2022-12-18T07:50:07;105134.00;;;-7.14;100.00
7309;BME280;3695;53.330;9.876;2022-12-18T07:52:33;105145.47;;;-7.06;100.00
7309;BME280;3695;53.330;9.876;2022-12-18T07:55:00;105171.00;;;-6.85;100.00
7309;BME280;3695;53.330;9.876;2022-12-18T07:57:28;105155.16;;;-6.95;100.00
7309;BME280;3695;53.330;9.876;2022-12-18T07:59:54;105176.25;;;-6.82;100.00
7309;BME280;3695;53.330;9.876;2022-12-18T08:02:21;105188.59;;;-6.62;100.00
7309;BME280;3695;53.330;9.876;2022-12-18T08:04:47;105180.72;;;-6.53;100.00
7309;BME280;3695;53.330;9.876;2022-12-18T08:07:14;105162.22;;;-6.52;100.00
7309;BME280;3695;53.330;9.876;2022-12-18T08:09:40;105156.94;;;-6.43;100.00
7309;BME280;3695;53.330;9.876;2022-12-18T08:12:07;105160.44;;;-6.28;100.00
7309;BME280;3695;53.330;9.876;2022-12-18T08:14:35;105136.69;;;-6.30;100.00
7309;BME280;3695;53.330;9.876;2022-12-18T08:17:01;105141.06;;;-6.20;100.00
7309;BME280;3695;53.330;9.876;2022-12-18T08:19:28;105121.69;;;-6.20;100.00
7309;BME280;3695;53.330;9.876;2022-12-18T08:21:54;105118.19;;;-6.13;100.00
7309;BME280;3695;53.330;9.876;2022-12-18T08:24:21;105140.06;;;-5.85;100.00
7309;BME280;3695;53.330;9.876;2022-12-18T08:26:47;105121.56;;;-5.79;100.00
7309;BME280;3695;53.330;9.876;2022-12-18T08:29:14;105104.81;;;-5.81;100.00
7309;BME280;3695;53.330;9.876;2022-12-18T08:31:41;105096.84;;;-5.71;100.00
7309;BME280;3695;53.330;9.876;2022-12-18T08:34:08;105074.84;;;-5.76;100.00
7309;BME280;3695;53.330;9.876;2022-12-18T08:36:34;105066.91;;;-5.66;100.00
7309;BME280;3695;53.330;9.876;2022-12-18T08:39:01;105048.38;;;-5.65;100.00
7309;BME280;3695;53.330;9.876;2022-12-18T08:41:27;105040.47;;;-5.66;100.00
7309;BME280;3695;53.330;9.876;2022-12-18T08:43:54;105038.66;;;-5.58;100.00
7309;BME280;3695;53.330;9.876;2022-12-18T08:46:40;105031.47;;;-5.38;100.00
7309;BME280;3695;53.330;9.876;2022-12-18T08:49:09;105006.88;;;-5.49;100.00
7309;BME280;3695;53.330;9.876;2022-12-18T08:51:36;105019.97;;;-5.32;100.00
7309;BME280;3695;53.330;9.876;2022-12-18T08:54:04;104989.22;;;-5.47;100.00
7309;BME280;3695;53.330;9.876;2022-12-18T08:56:30;104997.91;;;-5.31;100.00
7309;BME280;3695;53.330;9.876;2022-12-18T08:58:58;104995.25;;;-5.30;100.00
7309;BME280;3695;53.330;9.876;2022-12-18T09:01:25;104997.81;;;-5.15;100.00
7309;BME280;3695;53.330;9.876;2022-12-18T09:03:51;104973.13;;;-5.17;100.00
7309;BME280;3695;53.330;9.876;2022-12-18T09:06:20;104978.19;;;-4.92;100.00
7309;BME280;3695;53.330;9.876;2022-12-18T09:08:47;104973.72;;;-4.87;100.00
7309;BME280;3695;53.330;9.876;2022-12-18T09:11:18;104944.63;;;-4.87;100.00
7309;BME280;3695;53.330;9.876;2022-12-18T09:13:45;104934.81;;;-4.79;100.00
7309;BME280;3695;53.330;9.876;2022-12-18T09:16:12;104902.28;;;-4.89;100.00
7309;BME280;3695;53.330;9.876;2022-12-18T09:18:38;104902.97;;;-4.68;100.00
7309;BME280;3695;53.330;9.876;2022-12-18T09:21:09;104871.22;;;-4.73;100.00
7309;BME280;3695;53.330;9.876;2022-12-18T09:23:37;104869.28;;;-4.57;100.00
7309;BME280;3695;53.330;9.876;2022-12-18T09:26:04;104851.75;;;-4.66;100.00
7309;BME280;3695;53.330;9.876;2022-12-18T09:28:31;104851.72;;;-4.64;100.00
7309;BME280;3695;53.330;9.876;2022-12-18T09:30:57;104869.09;;;-4.44;100.00
7309;BME280;3695;53.330;9.876;2022-12-18T09:33:24;104838.28;;;-4.51;100.00
7309;BME280;3695;53.330;9.876;2022-12-18T09:35:50;104847.84;;;-4.40;100.00
7309;BME280;3695;53.330;9.876;2022-12-18T09:38:18;104840.69;;;-4.32;100.00
7309;BME280;3695;53.330;9.876;2022-12-18T09:40:48;104807.38;;;-4.49;100.00
7309;BME280;3695;53.330;9.876;2022-12-18T09:43:18;104830.03;;;-4.29;100.00
7309;BME280;3695;53.330;9.876;2022-12-18T09:45:49;104827.22;;;-4.17;100.00
7309;BME280;3695;53.330;9.876;2022-12-18T09:48:20;104814.06;;;-4.22;100.00
7309;BME280;3695;53.330;9.876;2022-12-18T09:50:48;104814.63;;;-4.03;100.00
7309;BME280;3695;53.330;9.876;2022-12-18T09:53:19;104796.72;;;-3.89;100.00
7309;BME280;3695;53.330;9.876;2022-12-18T09:55:50;104766.78;;;-3.94;100.00
7309;BME280;3695;53.330;9.876;2022-12-18T09:58:22;104777.91;;;-3.72;100.00
7309;BME280;3695;53.330;9.876;2022-12-18T10:00:53;104766.19;;;-3.60;100.00
7309;BME280;3695;53.330;9.876;2022-12-18T10:03:20;104742.47;;;-3.68;100.00
7309;BME280;3695;53.330;9.876;2022-12-18T10:05:55;104737.81;;;-3.55;100.00
7309;BME280;3695;53.330;9.876;2022-12-18T10:08:32;104711.09;;;-3.46;100.00
7309;BME280;3695;53.330;9.876;2022-12-18T10:11:21;104705.53;;;-3.34;100.00
7309;BME280;3695;53.330;9.876;2022-12-18T10:13:52;104697.31;;;-3.20;100.00
7309;BME280;3695;53.330;9.876;2022-12-18T10:16:27;104688.28;;;-3.11;100.00
7309;BME280;3695;53.330;9.876;2022-12-18T10:19:11;104659.91;;;-3.09;100.00
7309;BME280;3695;53.330;9.876;2022-12-18T10:21:48;104637.50;;;-2.96;100.00
7309;BME280;3695;53.330;9.876;2022-12-18T10:24:21;104613.56;;;-2.95;100.00
7309;BME280;3695;53.330;9.876;2022-12-18T10:26:52;104577.19;;;-2.91;100.00
7309;BME280;3695;53.330;9.876;2022-12-18T10:29:19;104574.25;;;-2.79;100.00
7309;BME280;3695;53.330;9.876;2022-12-18T10:31:45;104550.28;;;-2.76;100.00
7309;BME280;3695;53.330;9.876;2022-12-18T10:34:12;104572.06;;;-2.29;100.00
7309;BME280;3695;53.330;9.876;2022-12-18T10:36:39;104535.66;;;-2.26;100.00
7309;BME280;3695;53.330;9.876;2022-12-18T10:39:14;104480.31;;;-2.42;100.00
7309;BME280;3695;53.330;9.876;2022-12-18T10:41:41;104443.56;;;-2.58;100.00
7309;BME280;3695;53.330;9.876;2022-12-18T10:44:16;104408.13;;;-2.57;100.00
7309;BME280;3695;53.330;9.876;2022-12-18T10:46:44;104379.44;;;-2.45;100.00
7309;BME280;3695;53.330;9.876;2022-12-18T10:49:21;104351.09;;;-2.45;100.00
7309;BME280;3695;53.330;9.876;2022-12-18T10:51:48;104337.78;;;-2.43;100.00
7309;BME280;3695;53.330;9.876;2022-12-18T10:54:16;104313.69;;;-2.37;100.00
7309;BME280;3695;53.330;9.876;2022-12-18T10:56:44;104283.63;;;-2.39;100.00
7309;BME280;3695;53.330;9.876;2022-12-18T10:59:14;104287.25;;;-2.14;100.00
7309;BME280;3695;53.330;9.876;2022-12-18T11:01:49;104277.03;;;-1.73;100.00
7309;BME280;3695;53.330;9.876;2022-12-18T11:04:19;104230.66;;;-1.91;100.00
7309;BME280;3695;53.330;9.876;2022-12-18T11:06:58;104207.16;;;-2.03;100.00
7309;BME280;3695;53.330;9.876;2022-12-18T11:09:26;104195.22;;;-1.92;100.00
7309;BME280;3695;53.330;9.876;2022-12-18T11:11:54;104173.66;;;-1.82;100.00
7309;BME280;3695;53.330;9.876;2022-12-18T11:14:24;104157.50;;;-1.76;100.00
7309;BME280;3695;53.330;9.876;2022-12-18T11:16:52;104144.41;;;-1.82;100.00
7309;BME280;3695;53.330;9.876;2022-12-18T11:19:29;104140.44;;;-1.71;100.00
7309;BME280;3695;53.330;9.876;2022-12-18T11:21:56;104119.09;;;-1.69;100.00
7309;BME280;3695;53.330;9.876;2022-12-18T11:24:27;104106.03;;;-1.75;100.00
7309;BME280;3695;53.330;9.876;2022-12-18T11:26:56;104094.81;;;-1.60;100.00
7309;BME280;3695;53.330;9.876;2022-12-18T11:29:31;104080.34;;;-1.53;100.00
7309;BME280;3695;53.330;9.876;2022-12-18T11:32:22;104051.22;;;-1.56;100.00
7309;BME280;3695;53.330;9.876;2022-12-18T11:34:54;104043.00;;;-1.50;100.00
7309;BME280;3695;53.330;9.876;2022-12-18T11:37:24;104039.78;;;-1.58;100.00
7309;BME280;3695;53.330;9.876;2022-12-18T11:39:55;104042.75;;;-1.44;100.00
7309;BME280;3695;53.330;9.876;2022-12-18T11:42:25;104037.16;;;-1.36;100.00
7309;BME280;3695;53.330;9.876;2022-12-18T11:44:59;104023.56;;;-1.52;100.00
7309;BME280;3695;53.330;9.876;2022-12-18T11:47:29;104009.34;;;-1.51;100.00
7309;BME280;3695;53.330;9.876;2022-12-18T11:50:01;103982.28;;;-1.39;100.00
7309;BME280;3695;53.330;9.876;2022-12-18T11:52:31;103976.56;;;-1.30;100.00
7309;BME280;3695;53.330;9.876;2022-12-18T11:55:01;103986.84;;;-1.20;100.00
7309;BME280;3695;53.330;9.876;2022-12-18T11:57:37;103967.94;;;-1.14;100.00
7309;BME280;3695;53.330;9.876;2022-12-18T12:00:13;103954.28;;;-1.27;100.00
7309;BME280;3695;53.330;9.876;2022-12-18T12:02:57;103939.84;;;-1.21;100.00
7309;BME280;3695;53.330;9.876;2022-12-18T12:05:40;103929.84;;;-0.94;100.00
7309;BME280;3695;53.330;9.876;2022-12-18T12:08:15;103899.28;;;-1.06;100.00
7309;BME280;3695;53.330;9.876;2022-12-18T12:10:53;103883.16;;;-1.03;100.00
7309;BME280;3695;53.330;9.876;2022-12-18T12:13:34;103858.34;;;-1.04;100.00
7309;BME280;3695;53.330;9.876;2022-12-18T12:16:12;103843.16;;;-1.02;100.00
7309;BME280;3695;53.330;9.876;2022-12-18T12:18:50;103833.38;;;-1.01;100.00
7309;BME280;3695;53.330;9.876;2022-12-18T12:21:25;103811.94;;;-0.98;100.00
7309;BME280;3695;53.330;9.876;2022-12-18T12:24:02;103804.16;;;-1.03;100.00
7309;BME280;3695;53.330;9.876;2022-12-18T12:26:37;103779.84;;;-0.95;100.00
7309;BME280;3695;53.330;9.876;2022-12-18T12:29:17;103768.22;;;-0.92;100.00
7309;BME280;3695;53.330;9.876;2022-12-18T12:32:00;103738.25;;;-0.98;100.00
7309;BME280;3695;53.330;9.876;2022-12-18T12:34:34;103700.13;;;-0.98;100.00
7309;BME280;3695;53.330;9.876;2022-12-18T12:37:15;103669.06;;;-0.98;100.00
7309;BME280;3695;53.330;9.876;2022-12-18T12:39:47;103647.56;;;-0.93;100.00
7309;BME280;3695;53.330;9.876;2022-12-18T12:42:30;103632.72;;;-0.80;100.00
7309;BME280;3695;53.330;9.876;2022-12-18T12:45:19;103583.91;;;-0.80;100.00
7309;BME280;3695;53.330;9.876;2022-12-18T12:47:50;103563.78;;;-0.86;100.00
7309;BME280;3695;53.330;9.876;2022-12-18T12:50:19;103542.09;;;-0.78;100.00
7309;BME280;3695;53.330;9.876;2022-12-18T12:52:47;103523.47;;;-0.78;100.00
7309;BME280;3695;53.330;9.876;2022-12-18T12:55:19;103517.75;;;-0.71;100.00
7309;BME280;3695;53.330;9.876;2022-12-18T12:57:55;103493.47;;;-0.82;100.00
7309;BME280;3695;53.330;9.876;2022-12-18T13:00:25;103487.97;;;-0.79;100.00
7309;BME280;3695;53.330;9.876;2022-12-18T13:03:03;103476.06;;;-0.89;100.00
7309;BME280;3695;53.330;9.876;2022-12-18T13:05:34;103467.16;;;-0.88;100.00
7309;BME280;3695;53.330;9.876;2022-12-18T13:08:06;103463.47;;;-0.85;100.00
7309;BME280;3695;53.330;9.876;2022-12-18T13:10:36;103457.28;;;-0.86;100.00
7309;BME280;3695;53.330;9.876;2022-12-18T13:13:05;103447.56;;;-0.87;100.00